Time;durP1;ratioP1;P1;durP2;ratioP2;P2;SDS_P1;SDS_P2;PMS_P1;PMS_P2;Temp;Humidity;BMP_temperature;BMP_pressure;BME280_temperature;BME280_humidity;BME280_pressure;Samples;Min_cycle;Max_cycle;Signal;HPM_P1;HPM_P2
2022/12/15 01:47:33;;;;;;;70.70;44.03;;;;;;;-6.24;79.26;99707.59;5018047;23;20607;-77
2022/12/15 01:58:52;;;;;;;73.68;44.70;;;;;;;-6.24;79.60;99720.41;5029864;28;20141;-78
2022/12/15 02:18:34;;;;;;;73.13;44.58;;;;;;;-6.28;79.26;99705.91;5029377;28;20037;-78
2022/12/15 02:30:14;;;;;;;79.00;47.97;;;;;;;-6.31;79.31;99730.69;4958612;28;21140;-76
2022/12/15 02:33:02;;;;;;;71.22;47.80;;;;;;;-6.39;79.50;99738.41;4978246;28;20055;-78
2022/12/15 02:35:57;;;;;;;72.47;46.83;;;;;;;-6.45;79.14;99738.44;4957970;28;20288;-76
2022/12/15 03:08:58;;;;;;;74.82;44.97;;;;;;;-6.48;80.41;99794.78;5033029;28;20040;-77
2022/12/15 03:11:25;;;;;;;76.63;46.03;;;;;;;-6.46;80.04;99795.63;5034137;28;20085;-79
2022/12/15 03:13:53;;;;;;;73.88;45.70;;;;;;;-6.47;80.95;99789.66;5020412;28;20045;-78
2022/12/15 03:16:20;;;;;;;74.13;45.55;;;;;;;-6.44;81.00;99797.34;4995393;28;20137;-77
2022/12/15 03:18:48;;;;;;;68.93;44.70;;;;;;;-6.42;81.05;99803.28;5002464;28;20065;-77
2022/12/15 03:21:15;;;;;;;68.90;43.35;;;;;;;-6.33;80.87;99799.00;5002432;28;20125;-77
2022/12/15 03:23:42;;;;;;;64.25;41.95;;;;;;;-6.25;80.78;99804.94;5002110;28;20084;-78
2022/12/15 03:26:10;;;;;;;60.78;40.90;;;;;;;-6.18;80.67;99802.31;5021457;28;20132;-77
2022/12/15 03:28:37;;;;;;;65.35;43.60;;;;;;;-6.17;80.32;99798.06;5010220;28;20063;-77
2022/12/15 03:31:05;;;;;;;58.17;40.65;;;;;;;-6.12;79.93;99804.03;5029817;28;20060;-77
2022/12/15 03:33:33;;;;;;;64.18;40.42;;;;;;;-6.09;80.09;99800.59;5043227;28;20148;-77
2022/12/15 03:36:01;;;;;;;58.35;38.40;;;;;;;-6.04;79.92;99793.72;5025676;28;20146;-77
2022/12/15 03:38:28;;;;;;;62.05;40.22;;;;;;;-6.01;79.91;99783.47;5033037;28;20105;-77
2022/12/15 03:40:55;;;;;;;55.60;36.85;;;;;;;-5.96;79.62;99781.72;5052139;28;20097;-76
2022/12/15 03:43:22;;;;;;;64.63;40.30;;;;;;;-5.94;79.14;99787.72;5040024;28;20156;-78
2022/12/15 03:45:49;;;;;;;59.40;39.13;;;;;;;-5.92;79.28;99780.84;5034955;28;20041;-78
2022/12/15 03:48:17;;;;;;;61.28;40.65;;;;;;;-5.93;79.07;99792.81;5011844;28;20096;-77
2022/12/15 03:50:44;;;;;;;62.95;40.20;;;;;;;-6.02;79.85;99789.47;5044428;28;20069;-76
2022/12/15 03:53:11;;;;;;;67.07;41.75;;;;;;;-6.05;79.67;99792.88;5015758;28;20061;-77
2022/12/15 03:55:39;;;;;;;68.03;40.70;;;;;;;-6.04;79.63;99789.44;5025537;28;20597;-78
2022/12/15 03:58:06;;;;;;;71.10;43.65;;;;;;;-5.97;80.14;99795.41;5026524;28;20057;-77
2022/12/15 04:05:54;;;;;;;81.63;47.25;;;;;;;-6.05;81.31;99815.94;5036192;28;20527;-77
2022/12/15 04:22:02;;;;;;;63.55;40.70;;;;;;;-6.18;81.53;99819.41;5040880;28;20059;-78
2022/12/15 05:33:55;;;;;;;63.38;37.05;;;;;;;-6.91;82.99;99908.31;5053430;28;20048;-77
2022/12/15 06:55:59;;;;;;;67.10;33.30;;;;;;;-7.78;84.47;99982.25;5032913;28;20033;-77
2022/12/15 06:58:27;;;;;;;66.15;34.60;;;;;;;-7.77;84.51;99991.63;5021036;28;20072;-76
2022/12/15 07:00:54;;;;;;;65.80;35.55;;;;;;;-7.77;84.62;99995.88;5020706;28;20045;-77
2022/12/15 07:03:22;;;;;;;68.03;36.30;;;;;;;-7.85;84.27;100013.72;5036202;28;20087;-78
2022/12/15 07:06:03;;;;;;;72.32;35.95;;;;;;;-8.02;84.56;100015.31;4985389;28;20623;-78
2022/12/15 07:08:31;;;;;;;62.15;35.65;;;;;;;-7.99;84.85;100017.88;4999699;28;20413;-77
2022/12/15 07:11:10;;;;;;;62.60;32.00;;;;;;;-7.88;85.14;100026.44;5008368;28;20441;-77
2022/12/15 07:13:38;;;;;;;62.42;34.15;;;;;;;-7.84;84.86;100023.06;5008789;28;20151;-76
2022/12/15 07:16:10;;;;;;;58.22;32.38;;;;;;;-7.85;84.46;100036.69;5014343;28;20048;-77
2022/12/15 07:18:39;;;;;;;59.53;31.17;;;;;;;-7.81;84.25;100029.91;5016968;28;20080;-76
2022/12/15 07:21:08;;;;;;;52.13;29.95;;;;;;;-7.79;83.66;100038.44;5027705;28;20931;-76
2022/12/15 07:23:37;;;;;;;58.65;31.20;;;;;;;-7.87;83.43;100043.50;5017089;28;20149;-77
2022/12/15 07:26:21;;;;;;;49.50;26.77;;;;;;;-7.85;83.53;100048.63;5016343;28;20549;-76
2022/12/15 07:28:49;;;;;;;60.95;33.17;;;;;;;-7.85;83.55;100053.72;4997451;28;20136;-78
2022/12/15 07:31:16;;;;;;;55.15;30.38;;;;;;;-7.87;83.76;100063.09;5020353;28;20045;-75
2022/12/15 07:33:44;;;;;;;49.85;30.23;;;;;;;-7.81;82.91;100063.13;4986711;28;20533;-74
2022/12/15 07:36:12;;;;;;;54.00;30.35;;;;;;;-7.86;83.09;100073.31;5003597;28;20060;-75
2022/12/15 07:38:40;;;;;;;53.15;30.35;;;;;;;-8.01;83.06;100071.53;5039909;28;20033;-76
2022/12/15 07:41:09;;;;;;;53.15;29.92;;;;;;;-8.01;82.82;100070.66;5012290;28;20045;-76
2022/12/15 07:43:36;;;;;;;52.47;30.60;;;;;;;-7.95;82.74;100075.81;4995599;28;20065;-75
2022/12/15 07:46:04;;;;;;;51.60;29.67;;;;;;;-7.97;83.46;100073.25;5003330;28;20080;-77
2022/12/15 07:48:32;;;;;;;59.80;32.33;;;;;;;-7.93;82.85;100077.50;4992046;28;20050;-76
2022/12/15 07:51:06;;;;;;;55.03;30.38;;;;;;;-7.99;83.17;100079.19;5012436;28;20034;-77
2022/12/15 07:53:46;;;;;;;59.50;32.08;;;;;;;-7.95;83.12;100074.09;5006117;28;20251;-77
2022/12/15 07:56:14;;;;;;;59.22;32.05;;;;;;;-7.89;82.32;100088.63;5017009;28;20084;-77
2022/12/15 07:58:41;;;;;;;57.85;31.33;;;;;;;-7.90;82.20;100081.81;5020866;28;20132;-77
2022/12/15 08:01:11;;;;;;;57.40;30.80;;;;;;;-7.87;82.28;100084.38;5016757;28;20049;-77
2022/12/15 08:03:39;;;;;;;61.13;30.77;;;;;;;-7.87;82.15;100092.06;5026953;28;20092;-78
2022/12/15 08:06:11;;;;;;;59.63;33.03;;;;;;;-7.88;82.70;100085.22;5027129;28;20119;-75
2022/12/15 08:08:39;;;;;;;55.47;30.80;;;;;;;-7.86;81.65;100093.75;5031930;28;20080;-75
2022/12/15 08:11:12;;;;;;;63.63;32.50;;;;;;;-7.95;82.18;100106.47;5038167;28;20096;-79
2022/12/15 08:13:40;;;;;;;58.83;32.72;;;;;;;-7.95;81.94;100106.47;5011601;28;20305;-78
2022/12/15 08:16:28;;;;;;;60.83;32.92;;;;;;;-7.84;82.50;100111.63;5008882;28;20121;-77
2022/12/15 08:18:56;;;;;;;56.53;31.33;;;;;;;-7.74;82.42;100113.44;5010555;28;20057;-78
2022/12/15 08:21:23;;;;;;;53.13;30.63;;;;;;;-7.70;82.00;100102.38;5020495;28;20058;-77
2022/12/15 08:23:51;;;;;;;54.72;32.70;;;;;;;-7.66;81.37;100109.22;5002372;28;20049;-77
2022/12/15 08:26:19;;;;;;;53.22;30.15;;;;;;;-7.63;80.49;100108.38;5013668;28;20504;-77
2022/12/15 08:28:54;;;;;;;;;;;;;;;-7.56;80.58;100116.13;5012252;28;20556;-75
2022/12/15 08:31:23;;;;;;;56.97;29.80;;;;;;;-7.54;80.15;100121.22;5026176;28;19972;-79
2022/12/15 08:33:50;;;;;;;56.53;32.50;;;;;;;-7.53;80.60;100133.16;5031816;28;20557;-77
2022/12/15 08:36:19;;;;;;;59.03;31.13;;;;;;;-7.57;80.55;100136.53;5047784;28;20046;-75
2022/12/15 08:38:46;;;;;;;56.97;31.08;;;;;;;-7.62;81.04;100128.84;5030358;28;20030;-76
2022/12/15 08:41:22;;;;;;;55.70;29.80;;;;;;;-7.59;80.53;100126.31;5041657;28;20037;-76
2022/12/15 08:43:50;;;;;;;56.33;31.05;;;;;;;-7.60;80.72;100136.53;5047496;28;20033;-76
2022/12/15 08:46:20;;;;;;;56.42;31.25;;;;;;;-7.61;80.83;100132.25;5032069;28;20058;-76
2022/12/15 08:48:48;;;;;;;56.60;31.88;;;;;;;-7.57;80.55;100127.16;5055231;28;20052;-76
2022/12/15 08:51:16;;;;;;;51.58;31.77;;;;;;;-7.55;80.31;100145.09;5041311;28;20088;-76
2022/12/15 08:53:43;;;;;;;60.28;33.30;;;;;;;-7.46;81.53;100142.59;5049945;28;20087;-76
2022/12/15 08:56:17;;;;;;;54.53;31.25;;;;;;;-7.36;80.12;100136.66;5020820;28;20033;-76
2022/12/15 08:58:46;;;;;;;60.40;32.63;;;;;;;-7.31;80.06;100139.25;5028969;28;20057;-77
2022/12/15 09:01:19;;;;;;;54.33;32.30;;;;;;;-7.31;80.20;100145.22;5047982;28;20064;-76
2022/12/15 09:03:52;;;;;;;61.38;31.40;;;;;;;-7.32;80.66;100140.97;5050421;28;20045;-77
2022/12/15 09:06:31;;;;;;;57.35;33.90;;;;;;;-7.19;80.98;100142.75;5024651;28;20081;-76
2022/12/15 09:09:01;;;;;;;57.53;33.92;;;;;;;-7.10;80.31;100144.50;4993738;28;20484;-77
2022/12/15 09:11:29;;;;;;;58.25;33.60;;;;;;;-7.00;80.38;100145.38;5006319;28;20121;-77
2022/12/15 09:13:57;;;;;;;55.33;34.60;;;;;;;-6.98;80.60;100152.22;5012526;28;20141;-77
2022/12/15 09:16:24;;;;;;;59.08;35.75;;;;;;;-6.88;80.29;100150.56;5007441;28;20397;-76
2022/12/15 09:18:53;;;;;;;53.67;32.75;;;;;;;-6.77;79.69;100148.88;5028172;28;20041;-76
2022/12/15 09:21:25;;;;;;;58.67;34.08;;;;;;;-6.76;79.38;100153.16;4990425;28;20038;-77
2022/12/15 09:23:54;;;;;;;52.05;32.38;;;;;;;-6.70;79.50;100152.34;5008850;28;20577;-78
2022/12/15 09:26:22;;;;;;;59.13;35.38;;;;;;;-6.68;79.55;100150.63;5013080;28;20453;-77
2022/12/15 09:28:50;;;;;;;55.65;32.45;;;;;;;-6.61;79.10;100157.47;4979286;28;20042;-78
2022/12/15 09:31:20;;;;;;;54.38;33.53;;;;;;;-6.53;79.30;100165.16;5009500;28;20128;-77
2022/12/15 09:33:51;;;;;;;49.90;32.28;;;;;;;-6.55;78.99;100162.63;5002869;28;20129;-77
2022/12/15 09:36:19;;;;;;;53.10;33.85;;;;;;;-6.54;79.58;100159.19;5005189;28;20128;-78
2022/12/15 09:38:50;;;;;;;57.05;35.00;;;;;;;-6.55;79.42;100166.88;5001414;28;20049;-77
2022/12/15 09:41:29;;;;;;;57.47;35.90;;;;;;;-6.39;79.74;100163.53;5026432;28;20085;-77
2022/12/15 09:44:06;;;;;;;59.40;35.90;;;;;;;-6.25;79.50;100153.31;5009751;28;20048;-77
2022/12/15 09:46:48;;;;;;;52.47;34.92;;;;;;;-6.16;78.86;100151.59;5021441;28;20064;-77
2022/12/15 09:49:29;;;;;;;51.30;33.55;;;;;;;-6.14;79.23;100159.28;4995443;28;20105;-77
2022/12/15 09:52:05;;;;;;;57.70;36.20;;;;;;;-6.15;78.73;100157.59;5004018;28;20319;-77
2022/12/15 09:54:40;;;;;;;59.28;35.40;;;;;;;-6.15;78.72;100153.31;4993518;28;20073;-79
2022/12/15 09:57:51;;;;;;;55.08;34.88;;;;;;;-6.09;79.29;100161.84;5008529;28;20053;-76
2022/12/15 10:00:20;;;;;;;59.35;35.92;;;;;;;-6.00;79.84;100161.84;4987581;28;20482;-77
2022/12/15 10:03:03;;;;;;;51.55;33.88;;;;;;;-5.83;79.07;100172.09;5027182;28;20084;-77
2022/12/15 10:05:41;;;;;;;52.55;33.40;;;;;;;-5.74;78.61;100169.53;5029687;28;20053;-76
2022/12/15 10:08:34;;;;;;;58.83;35.10;;;;;;;-5.70;79.09;100158.41;5022465;28;20040;-76
2022/12/15 10:11:30;;;;;;;53.83;34.85;;;;;;;-5.64;78.91;100163.53;5005916;28;20078;-77
2022/12/15 10:14:29;;;;;;;52.67;33.15;;;;;;;-5.48;78.40;100160.13;5029122;28;20046;-77
2022/12/15 10:17:16;;;;;;;50.50;33.15;;;;;;;-5.31;78.29;100154.97;5026322;28;20104;-76
2022/12/15 10:20:05;;;;;;;52.75;33.78;;;;;;;-5.26;78.02;100166.06;4991335;28;20073;-76
2022/12/15 10:22:36;;;;;;;55.05;34.08;;;;;;;-5.35;78.13;100174.63;5002327;28;20084;-76
2022/12/15 10:25:13;;;;;;;54.17;34.10;;;;;;;-5.30;78.21;100179.75;5045864;28;20029;-75
2022/12/15 10:27:56;;;;;;;54.22;32.78;;;;;;;-5.28;77.92;100172.88;5020431;28;20045;-75
2022/12/15 10:30:23;;;;;;;50.85;32.28;;;;;;;-5.15;78.06;100166.03;5031827;28;20083;-78
2022/12/15 10:33:18;;;;;;;49.47;31.90;;;;;;;-5.13;76.80;100178.00;5006561;28;20493;-77
2022/12/15 10:35:45;;;;;;;48.50;30.70;;;;;;;-5.08;76.70;100183.13;5015287;28;20155;-78
2022/12/15 10:38:52;;;;;;;50.30;31.73;;;;;;;-5.10;77.24;100170.28;5027680;28;20041;-78
2022/12/15 10:41:23;;;;;;;52.90;31.30;;;;;;;-5.02;77.13;100169.41;4980962;28;20045;-77
2022/12/15 10:43:52;;;;;;;56.70;33.53;;;;;;;-4.94;77.66;100172.81;4980474;28;20041;-77
2022/12/15 10:46:32;;;;;;;51.78;31.13;;;;;;;-4.88;77.73;100165.94;5017819;28;20555;-77
2022/12/15 10:49:06;;;;;;;50.05;30.55;;;;;;;-4.86;76.75;100166.81;5016294;28;20093;-77
2022/12/15 10:51:48;;;;;;;52.65;30.48;;;;;;;-4.90;77.67;100171.97;5017063;28;20060;-77
2022/12/15 10:54:17;;;;;;;55.75;32.28;;;;;;;-4.85;77.74;100173.63;5021339;28;20057;-78
2022/12/15 10:56:50;;;;;;;57.42;33.15;;;;;;;-4.66;77.21;100179.56;5004284;28;20548;-77
2022/12/15 10:59:27;;;;;;;51.03;30.30;;;;;;;-4.46;77.37;100182.03;5006651;28;20048;-76
2022/12/15 11:02:35;;;;;;;51.90;31.08;;;;;;;-4.10;76.63;100181.00;4978445;28;20049;-77
2022/12/15 11:05:03;;;;;;;50.85;31.90;;;;;;;-3.92;75.50;100177.44;4933708;28;20050;-77
2022/12/15 11:07:40;;;;;;;57.05;33.83;;;;;;;-3.78;75.70;100192.75;4986103;28;20049;-76
2022/12/15 11:10:12;;;;;;;53.95;30.48;;;;;;;-3.54;74.83;100186.56;5009347;28;20076;-76
2022/12/15 11:12:52;;;;;;;54.25;32.67;;;;;;;-3.51;74.69;100180.50;4991024;28;20060;-75
2022/12/15 11:16:10;;;;;;;56.53;34.13;;;;;;;-3.65;74.48;100186.66;4976585;28;20100;-76
2022/12/15 11:18:47;;;;;;;55.70;31.73;;;;;;;-3.53;74.67;100197.69;4963562;28;20046;-76
2022/12/15 11:21:34;;;;;;;52.38;33.17;;;;;;;-3.46;74.50;100202.78;4997768;28;20068;-77
2022/12/15 11:24:07;;;;;;;51.88;28.85;;;;;;;-3.19;74.19;100205.97;4997741;28;20042;-78
2022/12/15 11:26:47;;;;;;;56.90;33.08;;;;;;;-3.19;73.64;100206.84;4996626;28;20057;-76
2022/12/15 11:29:22;;;;;;;52.78;32.90;;;;;;;-3.14;74.33;100207.63;5014751;28;20602;-77
2022/12/15 11:31:53;;;;;;;51.17;30.63;;;;;;;-3.10;74.35;100203.31;5012827;28;20034;-77
2022/12/15 11:34:29;;;;;;;50.97;29.23;;;;;;;-3.13;74.76;100199.03;4984581;28;20037;-77
2022/12/15 11:36:57;;;;;;;46.80;28.63;;;;;;;-3.20;74.30;100199.09;4982679;28;20049;-76
2022/12/15 11:39:48;;;;;;;51.00;28.55;;;;;;;-3.17;74.68;100202.50;4981392;28;20635;-77
2022/12/15 11:42:16;;;;;;;51.78;30.52;;;;;;;-3.06;75.03;100200.69;5008136;28;20050;-76
2022/12/15 11:44:53;;;;;;;50.45;30.60;;;;;;;-3.01;74.87;100198.06;5000923;28;20127;-77
2022/12/15 11:47:46;;;;;;;56.08;31.02;;;;;;;-3.01;75.04;100203.22;4991598;28;20057;-76
2022/12/15 11:50:35;;;;;;;53.97;29.88;;;;;;;-2.96;75.54;100211.75;5009340;28;20080;-76
2022/12/15 11:53:13;;;;;;;50.08;30.40;;;;;;;-2.95;75.75;100200.56;4995045;28;20054;-78
2022/12/15 11:56:02;;;;;;;53.58;28.95;;;;;;;-2.85;75.85;100201.31;4983662;28;20049;-76
2022/12/15 11:58:32;;;;;;;47.10;28.50;;;;;;;-2.81;75.44;100193.53;4994980;28;20100;-78
2022/12/15 12:01:19;;;;;;;47.97;26.67;;;;;;;-2.79;75.62;100196.13;5009175;28;20080;-78
2022/12/15 12:04:02;;;;;;;53.42;29.45;;;;;;;-2.72;75.51;100187.44;4998192;28;20112;-77
2022/12/15 12:06:36;;;;;;;44.40;27.35;;;;;;;-2.71;75.82;100183.13;5009001;28;20037;-78
2022/12/15 12:09:17;;;;;;;50.35;29.73;;;;;;;-2.73;75.20;100187.47;5009715;28;20115;-77
2022/12/15 12:11:47;;;;;;;45.85;28.13;;;;;;;-2.71;75.90;100188.28;5026143;28;20555;-76
2022/12/15 12:14:55;;;;;;;50.58;29.48;;;;;;;-2.64;75.76;100189.94;5007428;28;20136;-76
2022/12/15 12:17:32;;;;;;;48.17;28.52;;;;;;;-2.64;75.75;100185.63;4987721;28;20132;-77
2022/12/15 12:20:04;;;;;;;51.25;28.73;;;;;;;-2.53;75.81;100189.78;5007407;28;20034;-76
2022/12/15 12:23:01;;;;;;;47.75;27.98;;;;;;;-2.32;75.52;100186.94;5009401;28;20054;-79
2022/12/15 12:25:29;;;;;;;52.33;28.45;;;;;;;-2.17;74.60;100178.13;4991163;28;20157;-77
2022/12/15 12:28:05;;;;;;;47.97;28.73;;;;;;;-1.63;75.03;100173.84;4977788;28;20540;-77
2022/12/15 12:30:44;;;;;;;43.78;25.95;;;;;;;-0.98;73.05;100176.16;4992850;28;20037;-76
2022/12/15 12:33:43;;;;;;;45.63;26.67;;;;;;;-0.48;70.52;100179.47;4976337;28;20077;-77
2022/12/15 12:36:18;;;;;;;44.88;26.63;;;;;;;-0.28;68.28;100176.47;5006326;28;20037;-76
2022/12/15 12:38:54;;;;;;;46.28;26.95;;;;;;;-0.12;69.45;100179.56;5004592;28;20486;-77
2022/12/15 12:41:34;;;;;;;;;;;;;;;0.09;69.10;100185.97;5014757;28;20048;-78
2022/12/15 12:44:08;;;;;;;45.45;26.17;;;;;;;0.24;68.41;100188.22;5027337;28;20077;-76
2022/12/15 12:46:45;;;;;;;46.53;25.80;;;;;;;0.42;68.00;100187.78;4992752;28;20100;-78
2022/12/15 12:49:37;;;;;;;44.38;25.75;;;;;;;0.74;65.99;100189.56;5008037;28;20037;-77
2022/12/15 12:52:22;;;;;;;37.75;24.83;;;;;;;0.78;65.64;100197.28;4993373;28;20046;-76
2022/12/15 12:54:57;;;;;;;42.33;25.88;;;;;;;0.79;64.92;100201.56;5007224;28;20034;-76
2022/12/15 12:57:29;;;;;;;41.40;25.35;;;;;;;1.05;65.31;100201.72;4996047;28;20603;-76
2022/12/15 13:00:05;;;;;;;42.13;24.35;;;;;;;1.27;64.71;100207.19;5010984;28;20536;-76
2022/12/15 13:02:36;;;;;;;40.90;25.05;;;;;;;1.21;65.02;100204.75;5027489;28;20132;-76
2022/12/15 13:05:24;;;;;;;45.45;26.05;;;;;;;1.15;64.60;100215.28;5007748;28;20049;-77
2022/12/15 13:08:05;;;;;;;40.20;24.02;;;;;;;0.73;65.41;100215.53;5026435;28;20045;-77
2022/12/15 13:10:47;;;;;;;44.20;25.15;;;;;;;0.56;66.12;100210.75;5024597;28;20053;-76
2022/12/15 13:13:32;;;;;;;42.72;24.88;;;;;;;0.60;66.88;100208.94;5013382;28;20439;-77
2022/12/15 13:16:29;;;;;;;39.30;23.42;;;;;;;0.87;66.17;100202.22;5013810;28;20140;-76
2022/12/15 13:19:05;;;;;;;41.83;24.85;;;;;;;0.79;65.76;100206.75;4994172;28;20449;-76
2022/12/15 13:21:47;;;;;;;43.33;25.63;;;;;;;0.72;65.90;100193.06;4994012;28;20056;-76
2022/12/15 13:24:18;;;;;;;41.45;26.38;;;;;;;0.69;66.47;100193.16;5027152;28;20037;-76
2022/12/15 13:26:45;;;;;;;45.83;27.13;;;;;;;0.79;66.17;100194.63;5025598;28;20038;-77
2022/12/15 13:29:19;;;;;;;45.17;25.77;;;;;;;0.81;66.44;100194.56;5008567;28;20037;-76
2022/12/15 13:31:48;;;;;;;42.78;26.75;;;;;;;0.69;66.83;100199.19;4992951;28;20531;-77
2022/12/15 13:34:21;;;;;;;51.15;26.92;;;;;;;0.69;67.28;100201.78;5021676;28;21366;-77
2022/12/15 13:36:55;;;;;;;49.65;26.50;;;;;;;0.78;66.13;100192.94;5028759;28;20064;-77
2022/12/15 13:39:29;;;;;;;45.97;26.92;;;;;;;0.73;65.86;100187.03;5004370;28;20140;-77
2022/12/15 13:42:02;;;;;;;45.13;25.20;;;;;;;0.70;67.25;100195.72;5017419;28;20080;-77
2022/12/15 13:44:54;;;;;;;43.20;24.75;;;;;;;0.68;67.25;100192.31;5014621;28;20115;-77
2022/12/15 13:47:24;;;;;;;40.72;23.92;;;;;;;0.62;67.21;100207.16;5009446;28;20077;-77
2022/12/15 13:49:59;;;;;;;36.72;24.08;;;;;;;0.39;68.30;100213.75;5009188;28;20647;-77
2022/12/15 13:52:46;;;;;;;38.63;24.38;;;;;;;0.25;68.71;100208.03;4978320;28;20037;-77
2022/12/15 13:55:36;;;;;;;40.30;24.35;;;;;;;0.35;68.98;100206.94;4992871;28;20084;-78
2022/12/15 13:58:17;;;;;;;39.80;24.08;;;;;;;0.23;68.17;100209.84;5020609;28;20041;-77
2022/12/15 14:00:53;;;;;;;41.83;24.33;;;;;;;0.18;69.89;100204.75;4986586;28;20059;-77
2022/12/15 14:03:21;;;;;;;39.55;22.85;;;;;;;0.17;69.67;100209.94;5005578;28;20052;-78
2022/12/15 14:05:55;;;;;;;46.47;24.90;;;;;;;0.17;69.72;100208.22;5000098;28;20725;-77
2022/12/15 14:08:27;;;;;;;38.55;24.30;;;;;;;0.13;69.65;100204.00;5000293;28;20113;-77
2022/12/15 14:10:57;;;;;;;42.22;25.45;;;;;;;0.09;70.17;100204.97;4992821;28;20038;-77
2022/12/15 14:13:29;;;;;;;38.85;24.15;;;;;;;0.08;69.24;100205.00;4998928;28;20137;-77
2022/12/15 14:16:04;;;;;;;42.50;24.70;;;;;;;0.07;69.98;100205.88;5004939;28;20144;-77
2022/12/15 14:18:36;;;;;;;40.70;25.20;;;;;;;0.04;69.67;100209.38;5011167;28;20067;-77
2022/12/15 14:21:18;;;;;;;44.75;25.52;;;;;;;-0.09;70.20;100202.75;5025045;28;20099;-77
2022/12/15 14:23:47;;;;;;;42.08;24.13;;;;;;;-0.18;71.24;100210.72;4971264;28;20216;-76
2022/12/15 14:26:34;;;;;;;43.85;27.00;;;;;;;-0.36;71.39;100217.16;4998112;28;20045;-76
2022/12/15 14:29:04;;;;;;;41.15;25.77;;;;;;;-0.41;71.93;100213.81;4987852;28;20124;-77
2022/12/15 14:31:40;;;;;;;40.38;23.50;;;;;;;-0.52;72.07;100212.28;4989268;28;20045;-77
2022/12/15 14:34:22;;;;;;;43.05;25.23;;;;;;;-0.52;72.30;100207.13;5010381;28;20041;-77
2022/12/15 14:36:55;;;;;;;38.17;23.40;;;;;;;-0.53;72.39;100210.59;5014426;28;20046;-76
2022/12/15 14:39:33;;;;;;;38.35;24.25;;;;;;;-0.54;72.62;100210.63;5003915;28;20041;-77
